sensor_id;sensor_type;location;lat;lon;timestamp;temperature;humidity
8928;DHT22;4499;48.304;11.902;2022-12-07T00:01:29;2.20;99.90
8928;DHT22;4499;48.304;11.902;2022-12-07T00:04:01;2.20;99.90
8928;DHT22;4499;48.304;11.902;2022-12-07T00:06:33;2.20;99.90
8928;DHT22;4499;48.304;11.902;2022-12-07T00:09:02;2.10;99.90
8928;DHT22;4499;48.304;11.902;2022-12-07T00:11:31;2.20;99.90
8928;DHT22;4499;48.304;11.902;2022-12-07T00:14:01;2.20;99.90
8928;DHT22;4499;48.304;11.902;2022-12-07T00:16:31;2.20;99.90
8928;DHT22;4499;48.304;11.902;2022-12-07T00:19:01;2.20;99.90
8928;DHT22;4499;48.304;11.902;2022-12-07T00:21:31;2.20;99.90
8928;DHT22;4499;48.304;11.902;2022-12-07T00:24:00;2.20;99.90
8928;DHT22;4499;48.304;11.902;2022-12-07T00:26:30;2.10;99.90
8928;DHT22;4499;48.304;11.902;2022-12-07T00:29:00;2.10;99.90
8928;DHT22;4499;48.304;11.902;2022-12-07T00:31:30;2.10;99.90
8928;DHT22;4499;48.304;11.902;2022-12-07T00:34:02;2.10;99.90
8928;DHT22;4499;48.304;11.902;2022-12-07T00:36:30;2.10;99.90
8928;DHT22;4499;48.304;11.902;2022-12-07T00:38:59;2.10;99.90
8928;DHT22;4499;48.304;11.902;2022-12-07T00:41:27;2.10;99.90
8928;DHT22;4499;48.304;11.902;2022-12-07T00:43:56;2.10;99.90
8928;DHT22;4499;48.304;11.902;2022-12-07T00:46:25;2.20;99.90
8928;DHT22;4499;48.304;11.902;2022-12-07T00:48:54;2.20;99.90
8928;DHT22;4499;48.304;11.902;2022-12-07T00:51:24;2.20;99.90
8928;DHT22;4499;48.304;11.902;2022-12-07T00:53:52;2.20;99.90
8928;DHT22;4499;48.304;11.902;2022-12-07T00:56:22;2.20;99.90
8928;DHT22;4499;48.304;11.902;2022-12-07T00:58:52;2.10;99.90
8928;DHT22;4499;48.304;11.902;2022-12-07T01:01:20;2.10;99.90
8928;DHT22;4499;48.304;11.902;2022-12-07T01:03:48;2.10;99.90
8928;DHT22;4499;48.304;11.902;2022-12-07T01:06:18;2.10;99.90
8928;DHT22;4499;48.304;11.902;2022-12-07T01:08:48;2.10;99.90
8928;DHT22;4499;48.304;11.902;2022-12-07T01:11:18;2.10;99.90
8928;DHT22;4499;48.304;11.902;2022-12-07T01:13:50;2.00;99.90
8928;DHT22;4499;48.304;11.902;2022-12-07T01:16:19;2.00;99.90
8928;DHT22;4499;48.304;11.902;2022-12-07T01:18:51;2.00;99.90
8928;DHT22;4499;48.304;11.902;2022-12-07T01:21:21;2.00;99.90
8928;DHT22;4499;48.304;11.902;2022-12-07T01:23:51;2.00;99.90
8928;DHT22;4499;48.304;11.902;2022-12-07T01:26:21;2.00;99.90
8928;DHT22;4499;48.304;11.902;2022-12-07T01:28:50;2.00;99.90
8928;DHT22;4499;48.304;11.902;2022-12-07T01:31:20;2.00;99.90
8928;DHT22;4499;48.304;11.902;2022-12-07T01:33:49;2.00;99.90
8928;DHT22;4499;48.304;11.902;2022-12-07T01:36:20;2.00;99.90
8928;DHT22;4499;48.304;11.902;2022-12-07T01:38:53;1.90;99.90
8928;DHT22;4499;48.304;11.902;2022-12-07T01:41:24;2.00;99.90
8928;DHT22;4499;48.304;11.902;2022-12-07T01:44:16;2.00;99.90
8928;DHT22;4499;48.304;11.902;2022-12-07T01:46:45;2.00;99.90
8928;DHT22;4499;48.304;11.902;2022-12-07T01:49:18;2.00;99.90
8928;DHT22;4499;48.304;11.902;2022-12-07T01:51:49;1.90;99.90
8928;DHT22;4499;48.304;11.902;2022-12-07T01:54:21;1.90;99.90
8928;DHT22;4499;48.304;11.902;2022-12-07T01:56:51;1.90;99.90
8928;DHT22;4499;48.304;11.902;2022-12-07T01:59:23;1.90;99.90
8928;DHT22;4499;48.304;11.902;2022-12-07T02:01:53;1.90;99.90
8928;DHT22;4499;48.304;11.902;2022-12-07T02:04:23;1.90;99.90
8928;DHT22;4499;48.304;11.902;2022-12-07T02:06:52;1.90;99.90
8928;DHT22;4499;48.304;11.902;2022-12-07T02:09:22;1.90;99.90
8928;DHT22;4499;48.304;11.902;2022-12-07T02:11:50;1.90;99.90
8928;DHT22;4499;48.304;11.902;2022-12-07T02:14:19;1.90;99.90
8928;DHT22;4499;48.304;11.902;2022-12-07T02:16:54;1.80;99.90
8928;DHT22;4499;48.304;11.902;2022-12-07T02:23:04;1.90;99.90
8928;DHT22;4499;48.304;11.902;2022-12-07T02:25:54;1.80;99.90
8928;DHT22;4499;48.304;11.902;2022-12-07T02:28:29;1.80;99.90
8928;DHT22;4499;48.304;11.902;2022-12-07T02:31:05;1.80;99.90
8928;DHT22;4499;48.304;11.902;2022-12-07T02:33:37;1.80;99.90
8928;DHT22;4499;48.304;11.902;2022-12-07T02:36:12;1.80;99.90
8928;DHT22;4499;48.304;11.902;2022-12-07T02:38:47;1.80;99.90
8928;DHT22;4499;48.304;11.902;2022-12-07T02:41:19;1.80;99.90
8928;DHT22;4499;48.304;11.902;2022-12-07T02:43:52;1.80;99.90
8928;DHT22;4499;48.304;11.902;2022-12-07T02:46:27;1.70;99.90
8928;DHT22;4499;48.304;11.902;2022-12-07T02:48:57;1.80;99.90
8928;DHT22;4499;48.304;11.902;2022-12-07T02:51:29;1.80;99.90
8928;DHT22;4499;48.304;11.902;2022-12-07T02:53:57;1.80;99.90
8928;DHT22;4499;48.304;11.902;2022-12-07T02:56:30;1.80;99.90
8928;DHT22;4499;48.304;11.902;2022-12-07T02:59:14;1.80;99.90
8928;DHT22;4499;48.304;11.902;2022-12-07T03:01:54;1.80;99.90
8928;DHT22;4499;48.304;11.902;2022-12-07T03:04:37;1.80;99.90
8928;DHT22;4499;48.304;11.902;2022-12-07T03:07:14;1.70;99.90
8928;DHT22;4499;48.304;11.902;2022-12-07T03:09:53;1.70;99.90
8928;DHT22;4499;48.304;11.902;2022-12-07T03:12:29;1.80;99.90
8928;DHT22;4499;48.304;11.902;2022-12-07T03:15:03;1.80;99.90
8928;DHT22;4499;48.304;11.902;2022-12-07T03:17:37;1.80;99.90
8928;DHT22;4499;48.304;11.902;2022-12-07T03:20:13;1.80;99.90
8928;DHT22;4499;48.304;11.902;2022-12-07T03:22:44;1.80;99.90
8928;DHT22;4499;48.304;11.902;2022-12-07T03:25:16;1.80;99.90
8928;DHT22;4499;48.304;11.902;2022-12-07T03:27:48;1.80;99.90
8928;DHT22;4499;48.304;11.902;2022-12-07T03:30:23;1.80;99.90
8928;DHT22;4499;48.304;11.902;2022-12-07T03:32:56;1.80;99.90
8928;DHT22;4499;48.304;11.902;2022-12-07T03:35:27;1.80;99.90
8928;DHT22;4499;48.304;11.902;2022-12-07T03:37:58;1.80;99.90
8928;DHT22;4499;48.304;11.902;2022-12-07T03:40:32;1.80;99.90
8928;DHT22;4499;48.304;11.902;2022-12-07T03:43:02;1.80;99.90
8928;DHT22;4499;48.304;11.902;2022-12-07T03:45:35;1.80;99.90
8928;DHT22;4499;48.304;11.902;2022-12-07T03:48:11;1.80;99.90
8928;DHT22;4499;48.304;11.902;2022-12-07T03:50:50;1.80;99.90
8928;DHT22;4499;48.304;11.902;2022-12-07T03:53:23;1.80;99.90
8928;DHT22;4499;48.304;11.902;2022-12-07T03:55:54;1.80;99.90
8928;DHT22;4499;48.304;11.902;2022-12-07T03:58:24;1.80;99.90
8928;DHT22;4499;48.304;11.902;2022-12-07T04:00:55;1.80;99.90
8928;DHT22;4499;48.304;11.902;2022-12-07T04:03:25;1.80;99.90
8928;DHT22;4499;48.304;11.902;2022-12-07T04:05:53;1.80;99.90
8928;DHT22;4499;48.304;11.902;2022-12-07T04:08:21;1.80;99.90
8928;DHT22;4499;48.304;11.902;2022-12-07T04:10:49;1.80;99.90
8928;DHT22;4499;48.304;11.902;2022-12-07T04:13:17;1.80;99.90
8928;DHT22;4499;48.304;11.902;2022-12-07T04:15:45;1.80;99.90
8928;DHT22;4499;48.304;11.902;2022-12-07T04:18:13;1.80;99.90
8928;DHT22;4499;48.304;11.902;2022-12-07T04:20:43;1.80;99.90
8928;DHT22;4499;48.304;11.902;2022-12-07T04:23:11;1.80;99.90
8928;DHT22;4499;48.304;11.902;2022-12-07T04:25:40;1.70;99.90
8928;DHT22;4499;48.304;11.902;2022-12-07T04:28:08;1.80;99.90
8928;DHT22;4499;48.304;11.902;2022-12-07T04:30:36;1.90;99.90
8928;DHT22;4499;48.304;11.902;2022-12-07T04:33:04;1.80;99.90
8928;DHT22;4499;48.304;11.902;2022-12-07T04:35:32;1.70;99.90
8928;DHT22;4499;48.304;11.902;2022-12-07T04:38:01;1.80;99.90
8928;DHT22;4499;48.304;11.902;2022-12-07T04:40:29;1.80;99.90
8928;DHT22;4499;48.304;11.902;2022-12-07T04:42:57;1.80;99.90
8928;DHT22;4499;48.304;11.902;2022-12-07T04:45:25;1.80;99.90
8928;DHT22;4499;48.304;11.902;2022-12-07T04:47:53;1.90;99.90
8928;DHT22;4499;48.304;11.902;2022-12-07T04:50:22;1.80;99.90
8928;DHT22;4499;48.304;11.902;2022-12-07T04:52:50;1.80;99.90
8928;DHT22;4499;48.304;11.902;2022-12-07T04:55:19;1.80;99.90
8928;DHT22;4499;48.304;11.902;2022-12-07T04:57:47;1.80;99.90
8928;DHT22;4499;48.304;11.902;2022-12-07T05:00:15;1.80;99.90
8928;DHT22;4499;48.304;11.902;2022-12-07T05:02:44;1.80;99.90
8928;DHT22;4499;48.304;11.902;2022-12-07T05:05:12;1.80;99.90
8928;DHT22;4499;48.304;11.902;2022-12-07T05:07:40;1.80;99.90
8928;DHT22;4499;48.304;11.902;2022-12-07T05:10:09;1.80;99.90
8928;DHT22;4499;48.304;11.902;2022-12-07T05:12:38;1.80;99.90
8928;DHT22;4499;48.304;11.902;2022-12-07T05:15:10;1.70;99.90
8928;DHT22;4499;48.304;11.902;2022-12-07T05:17:38;1.70;99.90
8928;DHT22;4499;48.304;11.902;2022-12-07T05:20:07;1.80;99.90
8928;DHT22;4499;48.304;11.902;2022-12-07T05:22:35;1.70;99.90
8928;DHT22;4499;48.304;11.902;2022-12-07T05:25:04;1.70;99.90
8928;DHT22;4499;48.304;11.902;2022-12-07T05:27:33;1.70;99.90
8928;DHT22;4499;48.304;11.902;2022-12-07T05:30:03;1.70;99.90
8928;DHT22;4499;48.304;11.902;2022-12-07T05:32:32;1.70;99.90
8928;DHT22;4499;48.304;11.902;2022-12-07T05:35:00;1.70;99.90
8928;DHT22;4499;48.304;11.902;2022-12-07T05:37:28;1.70;99.90
8928;DHT22;4499;48.304;11.902;2022-12-07T05:39:56;1.70;99.90
8928;DHT22;4499;48.304;11.902;2022-12-07T05:42:24;1.70;99.90
8928;DHT22;4499;48.304;11.902;2022-12-07T05:44:52;1.70;99.90
8928;DHT22;4499;48.304;11.902;2022-12-07T05:47:22;1.70;99.90
8928;DHT22;4499;48.304;11.902;2022-12-07T05:49:50;1.80;99.90
8928;DHT22;4499;48.304;11.902;2022-12-07T05:52:22;1.80;99.90
8928;DHT22;4499;48.304;11.902;2022-12-07T05:54:50;1.70;99.90
8928;DHT22;4499;48.304;11.902;2022-12-07T05:57:18;1.70;99.90
8928;DHT22;4499;48.304;11.902;2022-12-07T05:59:46;1.70;99.90
8928;DHT22;4499;48.304;11.902;2022-12-07T06:02:15;1.80;99.90
8928;DHT22;4499;48.304;11.902;2022-12-07T06:04:47;1.60;99.90
8928;DHT22;4499;48.304;11.902;2022-12-07T06:07:16;1.60;99.90
8928;DHT22;4499;48.304;11.902;2022-12-07T06:09:44;1.60;99.90
8928;DHT22;4499;48.304;11.902;2022-12-07T06:12:12;1.60;99.90
8928;DHT22;4499;48.304;11.902;2022-12-07T06:14:58;1.60;99.90
8928;DHT22;4499;48.304;11.902;2022-12-07T06:17:26;1.60;99.90
8928;DHT22;4499;48.304;11.902;2022-12-07T06:19:56;1.60;99.90
8928;DHT22;4499;48.304;11.902;2022-12-07T06:22:24;1.60;99.90
8928;DHT22;4499;48.304;11.902;2022-12-07T06:24:52;1.60;99.90
8928;DHT22;4499;48.304;11.902;2022-12-07T06:27:20;1.60;99.90
8928;DHT22;4499;48.304;11.902;2022-12-07T06:29:48;1.60;99.90
8928;DHT22;4499;48.304;11.902;2022-12-07T06:32:16;1.60;99.90
8928;DHT22;4499;48.304;11.902;2022-12-07T06:34:44;1.60;99.90
8928;DHT22;4499;48.304;11.902;2022-12-07T06:37:14;1.60;99.90
8928;DHT22;4499;48.304;11.902;2022-12-07T06:39:43;1.60;99.90
8928;DHT22;4499;48.304;11.902;2022-12-07T06:42:12;1.60;99.90
8928;DHT22;4499;48.304;11.902;2022-12-07T06:44:40;1.60;99.90
8928;DHT22;4499;48.304;11.902;2022-12-07T06:47:08;1.60;99.90
8928;DHT22;4499;48.304;11.902;2022-12-07T06:49:56;1.60;99.90
8928;DHT22;4499;48.304;11.902;2022-12-07T06:52:26;1.60;99.90
8928;DHT22;4499;48.304;11.902;2022-12-07T06:54:54;1.60;99.90
8928;DHT22;4499;48.304;11.902;2022-12-07T06:57:22;1.60;99.90
8928;DHT22;4499;48.304;11.902;2022-12-07T06:59:54;1.60;99.90
8928;DHT22;4499;48.304;11.902;2022-12-07T07:02:22;1.60;99.90
8928;DHT22;4499;48.304;11.902;2022-12-07T07:04:51;1.60;99.90
8928;DHT22;4499;48.304;11.902;2022-12-07T07:07:18;1.60;99.90
8928;DHT22;4499;48.304;11.902;2022-12-07T07:09:48;1.60;99.90
8928;DHT22;4499;48.304;11.902;2022-12-07T07:12:16;1.60;99.90
8928;DHT22;4499;48.304;11.902;2022-12-07T07:14:44;1.70;99.90
8928;DHT22;4499;48.304;11.902;2022-12-07T07:17:12;1.60;99.90
8928;DHT22;4499;48.304;11.902;2022-12-07T07:19:40;1.60;99.90
8928;DHT22;4499;48.304;11.902;2022-12-07T07:22:08;1.60;99.90
8928;DHT22;4499;48.304;11.902;2022-12-07T07:24:36;1.60;99.90
8928;DHT22;4499;48.304;11.902;2022-12-07T07:27:06;1.60;99.90
8928;DHT22;4499;48.304;11.902;2022-12-07T07:29:34;1.60;99.90
8928;DHT22;4499;48.304;11.902;2022-12-07T07:32:02;1.60;99.90
8928;DHT22;4499;48.304;11.902;2022-12-07T07:34:32;1.60;99.90
8928;DHT22;4499;48.304;11.902;2022-12-07T07:37:00;1.60;99.90
8928;DHT22;4499;48.304;11.902;2022-12-07T07:39:28;1.60;99.90
8928;DHT22;4499;48.304;11.902;2022-12-07T07:41:57;1.70;99.90
8928;DHT22;4499;48.304;11.902;2022-12-07T07:44:26;1.70;99.90
8928;DHT22;4499;48.304;11.902;2022-12-07T07:47:00;1.80;99.90
8928;DHT22;4499;48.304;11.902;2022-12-07T07:49:28;1.80;99.90
8928;DHT22;4499;48.304;11.902;2022-12-07T07:51:56;2.60;99.90
8928;DHT22;4499;48.304;11.902;2022-12-07T07:54:24;2.60;99.90
8928;DHT22;4499;48.304;11.902;2022-12-07T07:56:52;2.40;99.90
8928;DHT22;4499;48.304;11.902;2022-12-07T07:59:21;2.30;99.90
8928;DHT22;4499;48.304;11.902;2022-12-07T08:01:50;2.30;99.90
8928;DHT22;4499;48.304;11.902;2022-12-07T08:04:19;2.20;99.90
8928;DHT22;4499;48.304;11.902;2022-12-07T08:06:47;2.10;99.90
8928;DHT22;4499;48.304;11.902;2022-12-07T08:09:15;2.20;99.90
8928;DHT22;4499;48.304;11.902;2022-12-07T08:11:43;2.20;99.90
8928;DHT22;4499;48.304;11.902;2022-12-07T08:14:12;2.20;99.90
8928;DHT22;4499;48.304;11.902;2022-12-07T08:16:40;2.10;99.90
8928;DHT22;4499;48.304;11.902;2022-12-07T08:19:10;2.10;99.90
8928;DHT22;4499;48.304;11.902;2022-12-07T08:21:38;2.20;99.90
8928;DHT22;4499;48.304;11.902;2022-12-07T08:24:06;2.20;99.90
8928;DHT22;4499;48.304;11.902;2022-12-07T08:26:34;2.20;99.90
8928;DHT22;4499;48.304;11.902;2022-12-07T08:29:02;2.30;99.90
8928;DHT22;4499;48.304;11.902;2022-12-07T08:31:31;2.30;99.90
8928;DHT22;4499;48.304;11.902;2022-12-07T08:33:59;2.30;99.90
8928;DHT22;4499;48.304;11.902;2022-12-07T08:36:29;2.30;99.90
8928;DHT22;4499;48.304;11.902;2022-12-07T08:38:57;2.30;99.90
8928;DHT22;4499;48.304;11.902;2022-12-07T08:41:45;2.40;99.90
8928;DHT22;4499;48.304;11.902;2022-12-07T08:44:13;2.40;99.90
8928;DHT22;4499;48.304;11.902;2022-12-07T08:46:45;2.50;99.90
8928;DHT22;4499;48.304;11.902;2022-12-07T08:49:17;2.60;99.90
8928;DHT22;4499;48.304;11.902;2022-12-07T08:51:48;2.60;99.90
8928;DHT22;4499;48.304;11.902;2022-12-07T08:54:18;2.60;99.90
8928;DHT22;4499;48.304;11.902;2022-12-07T08:56:47;2.80;99.90
8928;DHT22;4499;48.304;11.902;2022-12-07T08:59:24;2.70;99.90
8928;DHT22;4499;48.304;11.902;2022-12-07T09:01:53;2.80;99.90
8928;DHT22;4499;48.304;11.902;2022-12-07T09:04:21;2.80;99.90
8928;DHT22;4499;48.304;11.902;2022-12-07T09:06:51;2.80;99.90
8928;DHT22;4499;48.304;11.902;2022-12-07T09:09:19;2.90;99.90
8928;DHT22;4499;48.304;11.902;2022-12-07T09:11:47;3.10;99.90
8928;DHT22;4499;48.304;11.902;2022-12-07T09:14:15;3.10;99.90
8928;DHT22;4499;48.304;11.902;2022-12-07T09:16:48;3.20;99.90
8928;DHT22;4499;48.304;11.902;2022-12-07T09:19:16;3.40;99.90
8928;DHT22;4499;48.304;11.902;2022-12-07T09:21:44;3.50;99.90
8928;DHT22;4499;48.304;11.902;2022-12-07T09:24:14;3.60;99.90
8928;DHT22;4499;48.304;11.902;2022-12-07T09:26:42;3.50;99.90
8928;DHT22;4499;48.304;11.902;2022-12-07T09:29:14;3.50;99.90
8928;DHT22;4499;48.304;11.902;2022-12-07T09:31:42;3.60;99.90
8928;DHT22;4499;48.304;11.902;2022-12-07T09:34:10;3.30;99.90
8928;DHT22;4499;48.304;11.902;2022-12-07T09:36:38;3.40;99.90
8928;DHT22;4499;48.304;11.902;2022-12-07T09:39:06;3.60;99.90
8928;DHT22;4499;48.304;11.902;2022-12-07T09:41:37;3.80;99.90
8928;DHT22;4499;48.304;11.902;2022-12-07T09:44:10;4.00;99.90
8928;DHT22;4499;48.304;11.902;2022-12-07T09:46:40;3.90;99.90
8928;DHT22;4499;48.304;11.902;2022-12-07T09:49:12;3.90;99.90
8928;DHT22;4499;48.304;11.902;2022-12-07T09:51:43;4.10;99.90
8928;DHT22;4499;48.304;11.902;2022-12-07T09:54:13;4.10;99.90
8928;DHT22;4499;48.304;11.902;2022-12-07T09:56:43;4.00;99.90
8928;DHT22;4499;48.304;11.902;2022-12-07T09:59:16;4.20;99.90
8928;DHT22;4499;48.304;11.902;2022-12-07T10:01:47;4.20;99.90
8928;DHT22;4499;48.304;11.902;2022-12-07T10:04:18;4.20;99.90
8928;DHT22;4499;48.304;11.902;2022-12-07T10:06:48;4.50;99.90
8928;DHT22;4499;48.304;11.902;2022-12-07T10:09:19;4.50;99.90
8928;DHT22;4499;48.304;11.902;2022-12-07T10:12:06;4.50;99.90
8928;DHT22;4499;48.304;11.902;2022-12-07T10:14:37;4.60;99.90
8928;DHT22;4499;48.304;11.902;2022-12-07T10:17:34;4.60;99.90
8928;DHT22;4499;48.304;11.902;2022-12-07T10:20:21;4.60;99.90
8928;DHT22;4499;48.304;11.902;2022-12-07T10:22:57;4.60;99.90
8928;DHT22;4499;48.304;11.902;2022-12-07T10:25:28;4.50;99.90
8928;DHT22;4499;48.304;11.902;2022-12-07T10:28:02;4.40;99.90
8928;DHT22;4499;48.304;11.902;2022-12-07T10:30:47;4.40;99.90
8928;DHT22;4499;48.304;11.902;2022-12-07T10:33:31;4.30;99.90
8928;DHT22;4499;48.304;11.902;2022-12-07T10:36:09;4.40;99.90
8928;DHT22;4499;48.304;11.902;2022-12-07T10:38:45;4.50;99.90
8928;DHT22;4499;48.304;11.902;2022-12-07T10:41:14;4.40;99.90
8928;DHT22;4499;48.304;11.902;2022-12-07T10:43:52;4.30;99.90
8928;DHT22;4499;48.304;11.902;2022-12-07T10:52:32;4.30;99.90
8928;DHT22;4499;48.304;11.902;2022-12-07T10:55:16;4.30;99.90
8928;DHT22;4499;48.304;11.902;2022-12-07T10:57:59;4.00;99.90
8928;DHT22;4499;48.304;11.902;2022-12-07T11:00:39;4.00;99.90
8928;DHT22;4499;48.304;11.902;2022-12-07T11:03:26;4.20;99.90
8928;DHT22;4499;48.304;11.902;2022-12-07T11:06:10;4.50;99.90
8928;DHT22;4499;48.304;11.902;2022-12-07T11:08:59;4.70;99.90
8928;DHT22;4499;48.304;11.902;2022-12-07T11:11:33;5.00;99.90
8928;DHT22;4499;48.304;11.902;2022-12-07T11:14:10;5.30;99.90
8928;DHT22;4499;48.304;11.902;2022-12-07T11:16:55;5.80;99.90
8928;DHT22;4499;48.304;11.902;2022-12-07T11:19:40;6.40;99.90
8928;DHT22;4499;48.304;11.902;2022-12-07T11:22:23;6.80;99.90
8928;DHT22;4499;48.304;11.902;2022-12-07T11:25:00;7.30;99.90
8928;DHT22;4499;48.304;11.902;2022-12-07T11:27:34;6.70;99.90
8928;DHT22;4499;48.304;11.902;2022-12-07T11:30:16;6.50;99.90
8928;DHT22;4499;48.304;11.902;2022-12-07T11:33:11;6.60;99.90
8928;DHT22;4499;48.304;11.902;2022-12-07T11:35:52;6.80;99.90
8928;DHT22;4499;48.304;11.902;2022-12-07T11:38:37;6.50;99.90
8928;DHT22;4499;48.304;11.902;2022-12-07T11:41:09;6.30;99.90
8928;DHT22;4499;48.304;11.902;2022-12-07T11:43:53;8.40;99.90
8928;DHT22;4499;48.304;11.902;2022-12-07T11:46:25;9.00;99.90
8928;DHT22;4499;48.304;11.902;2022-12-07T11:49:01;10.30;99.90
8928;DHT22;4499;48.304;11.902;2022-12-07T11:51:33;9.60;99.90
8928;DHT22;4499;48.304;11.902;2022-12-07T11:54:10;8.00;99.90
8928;DHT22;4499;48.304;11.902;2022-12-07T11:56:40;7.10;99.90
8928;DHT22;4499;48.304;11.902;2022-12-07T11:59:13;6.70;99.90
8928;DHT22;4499;48.304;11.902;2022-12-07T12:01:52;6.20;99.90
8928;DHT22;4499;48.304;11.902;2022-12-07T12:04:35;5.60;99.90
8928;DHT22;4499;48.304;11.902;2022-12-07T12:07:07;5.40;99.90
8928;DHT22;4499;48.304;11.902;2022-12-07T12:10:05;5.20;99.90
8928;DHT22;4499;48.304;11.902;2022-12-07T12:13:05;5.00;99.90
8928;DHT22;4499;48.304;11.902;2022-12-07T12:16:11;4.90;99.90
8928;DHT22;4499;48.304;11.902;2022-12-07T12:18:53;5.00;99.90
8928;DHT22;4499;48.304;11.902;2022-12-07T12:21:28;4.90;99.90
8928;DHT22;4499;48.304;11.902;2022-12-07T12:24:02;5.00;99.90
8928;DHT22;4499;48.304;11.902;2022-12-07T12:26:33;5.20;99.90
8928;DHT22;4499;48.304;11.902;2022-12-07T12:29:05;5.40;99.90
8928;DHT22;4499;48.304;11.902;2022-12-07T12:31:37;5.40;99.90
8928;DHT22;4499;48.304;11.902;2022-12-07T12:34:31;5.50;99.90
8928;DHT22;4499;48.304;11.902;2022-12-07T12:37:01;5.20;99.90
8928;DHT22;4499;48.304;11.902;2022-12-07T12:39:29;5.10;99.90
8928;DHT22;4499;48.304;11.902;2022-12-07T12:42:00;5.00;99.90
8928;DHT22;4499;48.304;11.902;2022-12-07T12:47:53;4.90;99.90
8928;DHT22;4499;48.304;11.902;2022-12-07T12:50:23;4.80;99.90
8928;DHT22;4499;48.304;11.902;2022-12-07T12:53:11;4.70;99.90
8928;DHT22;4499;48.304;11.902;2022-12-07T12:56:14;4.60;99.90
8928;DHT22;4499;48.304;11.902;2022-12-07T12:58:46;4.60;99.90
8928;DHT22;4499;48.304;11.902;2022-12-07T13:01:39;4.50;99.90
8928;DHT22;4499;48.304;11.902;2022-12-07T13:07:12;4.40;99.90
8928;DHT22;4499;48.304;11.902;2022-12-07T13:09:44;4.30;99.90
8928;DHT22;4499;48.304;11.902;2022-12-07T13:12:14;4.20;99.90
8928;DHT22;4499;48.304;11.902;2022-12-07T13:14:56;4.30;99.90
8928;DHT22;4499;48.304;11.902;2022-12-07T13:17:56;4.40;99.90
8928;DHT22;4499;48.304;11.902;2022-12-07T13:20:55;4.30;99.90
8928;DHT22;4499;48.304;11.902;2022-12-07T13:23:29;4.40;99.90
8928;DHT22;4499;48.304;11.902;2022-12-07T13:26:22;4.40;99.90
8928;DHT22;4499;48.304;11.902;2022-12-07T13:28:58;4.40;99.90
8928;DHT22;4499;48.304;11.902;2022-12-07T13:31:34;4.40;99.90
8928;DHT22;4499;48.304;11.902;2022-12-07T13:34:04;4.40;99.90
8928;DHT22;4499;48.304;11.902;2022-12-07T13:36:37;4.30;99.90
8928;DHT22;4499;48.304;11.902;2022-12-07T13:39:18;4.30;99.90
8928;DHT22;4499;48.304;11.902;2022-12-07T13:41:51;4.30;99.90
8928;DHT22;4499;48.304;11.902;2022-12-07T13:44:20;4.20;99.90
8928;DHT22;4499;48.304;11.902;2022-12-07T13:46:53;4.20;99.90
8928;DHT22;4499;48.304;11.902;2022-12-07T13:49:25;4.20;99.90
8928;DHT22;4499;48.304;11.902;2022-12-07T13:51:54;4.20;99.90
8928;DHT22;4499;48.304;11.902;2022-12-07T13:54:23;4.10;99.90
8928;DHT22;4499;48.304;11.902;2022-12-07T13:56:54;4.30;99.90
8928;DHT22;4499;48.304;11.902;2022-12-07T13:59:23;4.30;99.90
8928;DHT22;4499;48.304;11.902;2022-12-07T14:01:53;4.20;99.90
8928;DHT22;4499;48.304;11.902;2022-12-07T14:04:33;4.20;99.90
8928;DHT22;4499;48.304;11.902;2022-12-07T14:07:18;4.20;99.90
8928;DHT22;4499;48.304;11.902;2022-12-07T14:09:54;6.20;99.90
8928;DHT22;4499;48.304;11.902;2022-12-07T14:12:24;6.90;99.90
8928;DHT22;4499;48.304;11.902;2022-12-07T14:14:53;6.00;99.90
8928;DHT22;4499;48.304;11.902;2022-12-07T14:17:26;6.00;99.90
8928;DHT22;4499;48.304;11.902;2022-12-07T14:19:55;5.40;99.90
8928;DHT22;4499;48.304;11.902;2022-12-07T14:22:29;4.90;99.90
8928;DHT22;4499;48.304;11.902;2022-12-07T14:25:18;4.60;99.90
8928;DHT22;4499;48.304;11.902;2022-12-07T14:27:53;4.40;99.90
8928;DHT22;4499;48.304;11.902;2022-12-07T14:30:25;4.20;99.90
8928;DHT22;4499;48.304;11.902;2022-12-07T14:32:57;4.00;99.90
8928;DHT22;4499;48.304;11.902;2022-12-07T14:35:26;4.00;99.90
8928;DHT22;4499;48.304;11.902;2022-12-07T14:37:55;3.90;99.90
8928;DHT22;4499;48.304;11.902;2022-12-07T14:40:25;3.90;99.90
8928;DHT22;4499;48.304;11.902;2022-12-07T14:42:59;3.80;99.90
8928;DHT22;4499;48.304;11.902;2022-12-07T14:45:27;3.70;99.90
8928;DHT22;4499;48.304;11.902;2022-12-07T14:47:56;3.70;99.90
8928;DHT22;4499;48.304;11.902;2022-12-07T14:50:47;3.70;99.90
8928;DHT22;4499;48.304;11.902;2022-12-07T14:53:39;3.70;99.90
8928;DHT22;4499;48.304;11.902;2022-12-07T14:56:08;3.60;99.90
8928;DHT22;4499;48.304;11.902;2022-12-07T14:58:38;3.60;99.90
8928;DHT22;4499;48.304;11.902;2022-12-07T15:01:07;3.60;99.90
8928;DHT22;4499;48.304;11.902;2022-12-07T15:03:35;3.60;99.90
8928;DHT22;4499;48.304;11.902;2022-12-07T15:06:05;3.60;99.90
8928;DHT22;4499;48.304;11.902;2022-12-07T15:08:34;3.50;99.90
8928;DHT22;4499;48.304;11.902;2022-12-07T15:11:02;3.50;99.90
8928;DHT22;4499;48.304;11.902;2022-12-07T15:13:30;3.60;99.90
8928;DHT22;4499;48.304;11.902;2022-12-07T15:16:19;3.50;99.90
8928;DHT22;4499;48.304;11.902;2022-12-07T15:18:48;3.50;99.90
8928;DHT22;4499;48.304;11.902;2022-12-07T15:21:37;3.50;99.90
8928;DHT22;4499;48.304;11.902;2022-12-07T15:24:07;3.50;99.90
8928;DHT22;4499;48.304;11.902;2022-12-07T15:26:35;3.40;99.90
8928;DHT22;4499;48.304;11.902;2022-12-07T15:29:04;3.40;99.90
8928;DHT22;4499;48.304;11.902;2022-12-07T15:31:35;3.40;99.90
8928;DHT22;4499;48.304;11.902;2022-12-07T15:34:23;3.40;99.90
8928;DHT22;4499;48.304;11.902;2022-12-07T15:36:53;3.30;99.90
8928;DHT22;4499;48.304;11.902;2022-12-07T15:39:21;3.30;99.90
8928;DHT22;4499;48.304;11.902;2022-12-07T15:41:50;3.30;99.90
8928;DHT22;4499;48.304;11.902;2022-12-07T15:44:18;3.30;99.90
8928;DHT22;4499;48.304;11.902;2022-12-07T15:47:05;3.30;99.90
8928;DHT22;4499;48.304;11.902;2022-12-07T15:49:34;3.30;99.90
8928;DHT22;4499;48.304;11.902;2022-12-07T15:52:03;3.30;99.90
8928;DHT22;4499;48.304;11.902;2022-12-07T15:54:32;3.30;99.90
8928;DHT22;4499;48.304;11.902;2022-12-07T15:57:00;3.30;99.90
8928;DHT22;4499;48.304;11.902;2022-12-07T15:59:28;3.20;99.90
8928;DHT22;4499;48.304;11.902;2022-12-07T16:01:57;3.30;99.90
8928;DHT22;4499;48.304;11.902;2022-12-07T16:04:30;3.30;99.90
8928;DHT22;4499;48.304;11.902;2022-12-07T16:06:58;3.30;99.90
8928;DHT22;4499;48.304;11.902;2022-12-07T16:09:26;3.30;99.90
8928;DHT22;4499;48.304;11.902;2022-12-07T16:11:55;3.20;99.90
8928;DHT22;4499;48.304;11.902;2022-12-07T16:14:23;3.20;99.90
8928;DHT22;4499;48.304;11.902;2022-12-07T16:16:51;3.20;99.90
8928;DHT22;4499;48.304;11.902;2022-12-07T16:19:20;3.20;99.90
8928;DHT22;4499;48.304;11.902;2022-12-07T16:21:50;3.20;99.90
8928;DHT22;4499;48.304;11.902;2022-12-07T16:24:18;5.80;99.90
8928;DHT22;4499;48.304;11.902;2022-12-07T16:26:47;6.00;99.90
8928;DHT22;4499;48.304;11.902;2022-12-07T16:29:17;6.30;99.90
8928;DHT22;4499;48.304;11.902;2022-12-07T16:31:46;7.30;99.90
8928;DHT22;4499;48.304;11.902;2022-12-07T16:34:15;7.70;99.90
8928;DHT22;4499;48.304;11.902;2022-12-07T16:36:43;7.60;99.90
8928;DHT22;4499;48.304;11.902;2022-12-07T16:39:32;6.20;99.90
8928;DHT22;4499;48.304;11.902;2022-12-07T16:42:05;5.20;99.90
8928;DHT22;4499;48.304;11.902;2022-12-07T16:44:33;4.70;99.90
8928;DHT22;4499;48.304;11.902;2022-12-07T16:47:01;4.50;99.90
8928;DHT22;4499;48.304;11.902;2022-12-07T16:49:30;4.20;99.90
8928;DHT22;4499;48.304;11.902;2022-12-07T16:51:58;4.00;99.90